sensor_id;sensor_type;location;lat;lon;timestamp;temperature;humidity
10316;DHT22;5203;48.976;8.306;2023-05-29T00:00:16;18.60;59.40
10316;DHT22;5203;48.976;8.306;2023-05-29T00:02:44;18.50;59.80
10316;DHT22;5203;48.976;8.306;2023-05-29T00:05:14;18.60;59.80
10316;DHT22;5203;48.976;8.306;2023-05-29T00:07:40;18.50;60.00
10316;DHT22;5203;48.976;8.306;2023-05-29T00:10:07;18.40;60.60
10316;DHT22;5203;48.976;8.306;2023-05-29T00:12:33;18.20;61.30
10316;DHT22;5203;48.976;8.306;2023-05-29T00:14:59;18.00;62.10
10316;DHT22;5203;48.976;8.306;2023-05-29T00:17:25;17.90;62.60
10316;DHT22;5203;48.976;8.306;2023-05-29T00:19:51;17.80;63.10
10316;DHT22;5203;48.976;8.306;2023-05-29T00:22:17;17.70;63.80
10316;DHT22;5203;48.976;8.306;2023-05-29T00:24:43;17.60;64.90
10316;DHT22;5203;48.976;8.306;2023-05-29T00:27:09;17.50;64.90
10316;DHT22;5203;48.976;8.306;2023-05-29T00:29:36;17.40;65.00
10316;DHT22;5203;48.976;8.306;2023-05-29T00:32:04;17.40;65.00
10316;DHT22;5203;48.976;8.306;2023-05-29T00:34:29;17.30;65.30
10316;DHT22;5203;48.976;8.306;2023-05-29T00:36:55;17.30;65.80
10316;DHT22;5203;48.976;8.306;2023-05-29T00:39:21;17.30;65.70
10316;DHT22;5203;48.976;8.306;2023-05-29T00:41:47;17.30;65.50
10316;DHT22;5203;48.976;8.306;2023-05-29T00:44:19;17.20;66.20
10316;DHT22;5203;48.976;8.306;2023-05-29T00:46:46;17.00;66.70
10316;DHT22;5203;48.976;8.306;2023-05-29T00:49:13;17.00;67.40
10316;DHT22;5203;48.976;8.306;2023-05-29T00:51:40;17.00;67.20
10316;DHT22;5203;48.976;8.306;2023-05-29T00:54:07;17.10;66.30
10316;DHT22;5203;48.976;8.306;2023-05-29T00:56:35;17.10;66.30
10316;DHT22;5203;48.976;8.306;2023-05-29T00:59:01;16.90;67.30
10316;DHT22;5203;48.976;8.306;2023-05-29T01:01:27;16.80;67.60
10316;DHT22;5203;48.976;8.306;2023-05-29T01:03:55;16.70;68.30
10316;DHT22;5203;48.976;8.306;2023-05-29T01:06:22;16.60;68.60
10316;DHT22;5203;48.976;8.306;2023-05-29T01:08:48;16.30;69.60
10316;DHT22;5203;48.976;8.306;2023-05-29T01:11:31;16.20;69.60
10316;DHT22;5203;48.976;8.306;2023-05-29T01:14:06;16.20;67.20
10316;DHT22;5203;48.976;8.306;2023-05-29T01:17:37;16.30;66.40
10316;DHT22;5203;48.976;8.306;2023-05-29T01:22:46;16.70;62.50
10316;DHT22;5203;48.976;8.306;2023-05-29T01:28:11;17.20;60.30
10316;DHT22;5203;48.976;8.306;2023-05-29T01:30:39;17.30;60.60
10316;DHT22;5203;48.976;8.306;2023-05-29T01:33:05;17.50;59.20
10316;DHT22;5203;48.976;8.306;2023-05-29T01:35:32;17.50;59.10
10316;DHT22;5203;48.976;8.306;2023-05-29T01:37:57;17.60;59.80
10316;DHT22;5203;48.976;8.306;2023-05-29T01:40:23;17.70;57.60
10316;DHT22;5203;48.976;8.306;2023-05-29T01:42:49;17.80;57.70
10316;DHT22;5203;48.976;8.306;2023-05-29T01:45:15;17.90;56.80
10316;DHT22;5203;48.976;8.306;2023-05-29T01:47:42;17.90;55.80
10316;DHT22;5203;48.976;8.306;2023-05-29T01:50:09;18.00;55.60
10316;DHT22;5203;48.976;8.306;2023-05-29T01:52:36;18.10;57.40
10316;DHT22;5203;48.976;8.306;2023-05-29T01:55:01;17.90;58.90
10316;DHT22;5203;48.976;8.306;2023-05-29T01:57:28;17.90;58.90
10316;DHT22;5203;48.976;8.306;2023-05-29T01:59:54;17.90;59.30
10316;DHT22;5203;48.976;8.306;2023-05-29T02:02:21;17.90;58.70
10316;DHT22;5203;48.976;8.306;2023-05-29T02:04:48;17.90;58.10
10316;DHT22;5203;48.976;8.306;2023-05-29T02:07:14;18.00;57.50
10316;DHT22;5203;48.976;8.306;2023-05-29T02:09:41;18.10;57.90
10316;DHT22;5203;48.976;8.306;2023-05-29T02:12:06;17.90;58.60
10316;DHT22;5203;48.976;8.306;2023-05-29T02:14:33;17.80;59.20
10316;DHT22;5203;48.976;8.306;2023-05-29T02:16:59;17.60;60.30
10316;DHT22;5203;48.976;8.306;2023-05-29T02:19:26;17.50;60.60
10316;DHT22;5203;48.976;8.306;2023-05-29T02:21:52;17.50;60.40
10316;DHT22;5203;48.976;8.306;2023-05-29T02:24:18;17.60;59.40
10316;DHT22;5203;48.976;8.306;2023-05-29T02:26:44;17.60;59.10
10316;DHT22;5203;48.976;8.306;2023-05-29T02:29:09;17.70;59.30
10316;DHT22;5203;48.976;8.306;2023-05-29T02:31:36;17.70;59.70
10316;DHT22;5203;48.976;8.306;2023-05-29T02:34:01;17.50;60.00
10316;DHT22;5203;48.976;8.306;2023-05-29T02:36:27;17.40;60.60
10316;DHT22;5203;48.976;8.306;2023-05-29T02:38:53;17.30;61.00
10316;DHT22;5203;48.976;8.306;2023-05-29T02:41:18;17.20;59.80
10316;DHT22;5203;48.976;8.306;2023-05-29T02:43:44;17.20;59.80
10316;DHT22;5203;48.976;8.306;2023-05-29T02:46:10;17.20;58.90
10316;DHT22;5203;48.976;8.306;2023-05-29T02:48:35;17.20;59.00
10316;DHT22;5203;48.976;8.306;2023-05-29T02:51:01;17.20;58.80
10316;DHT22;5203;48.976;8.306;2023-05-29T02:53:27;17.20;59.30
10316;DHT22;5203;48.976;8.306;2023-05-29T02:55:52;17.10;58.30
10316;DHT22;5203;48.976;8.306;2023-05-29T02:58:18;17.20;58.90
10316;DHT22;5203;48.976;8.306;2023-05-29T03:00:43;17.30;57.90
10316;DHT22;5203;48.976;8.306;2023-05-29T03:03:09;17.30;56.20
10316;DHT22;5203;48.976;8.306;2023-05-29T03:05:35;17.30;56.50
10316;DHT22;5203;48.976;8.306;2023-05-29T03:08:00;17.30;56.70
10316;DHT22;5203;48.976;8.306;2023-05-29T03:10:26;17.40;56.20
10316;DHT22;5203;48.976;8.306;2023-05-29T03:12:51;17.40;56.00
10316;DHT22;5203;48.976;8.306;2023-05-29T03:15:17;17.40;55.80
10316;DHT22;5203;48.976;8.306;2023-05-29T03:17:46;17.50;56.70
10316;DHT22;5203;48.976;8.306;2023-05-29T03:20:12;17.40;57.70
10316;DHT22;5203;48.976;8.306;2023-05-29T03:22:38;17.40;58.10
10316;DHT22;5203;48.976;8.306;2023-05-29T03:25:04;17.40;57.20
10316;DHT22;5203;48.976;8.306;2023-05-29T03:27:30;17.30;58.70
10316;DHT22;5203;48.976;8.306;2023-05-29T03:29:56;17.40;57.70
10316;DHT22;5203;48.976;8.306;2023-05-29T03:32:23;17.30;57.50
10316;DHT22;5203;48.976;8.306;2023-05-29T03:34:48;17.40;56.90
10316;DHT22;5203;48.976;8.306;2023-05-29T03:37:14;17.40;56.60
10316;DHT22;5203;48.976;8.306;2023-05-29T03:39:40;17.50;57.30
10316;DHT22;5203;48.976;8.306;2023-05-29T03:42:06;17.40;57.80
10316;DHT22;5203;48.976;8.306;2023-05-29T03:44:31;17.30;57.90
10316;DHT22;5203;48.976;8.306;2023-05-29T03:46:57;17.20;58.40
10316;DHT22;5203;48.976;8.306;2023-05-29T03:49:22;17.10;57.60
10316;DHT22;5203;48.976;8.306;2023-05-29T03:51:49;17.10;57.60
10316;DHT22;5203;48.976;8.306;2023-05-29T03:54:15;17.10;58.30
10316;DHT22;5203;48.976;8.306;2023-05-29T03:56:41;17.00;59.10
10316;DHT22;5203;48.976;8.306;2023-05-29T03:59:07;17.10;59.20
10316;DHT22;5203;48.976;8.306;2023-05-29T04:01:32;17.00;58.80
10316;DHT22;5203;48.976;8.306;2023-05-29T04:03:58;17.10;58.70
10316;DHT22;5203;48.976;8.306;2023-05-29T04:06:24;17.10;59.10
10316;DHT22;5203;48.976;8.306;2023-05-29T04:08:50;17.10;58.90
10316;DHT22;5203;48.976;8.306;2023-05-29T04:11:15;17.10;59.10
10316;DHT22;5203;48.976;8.306;2023-05-29T04:13:41;17.10;58.30
10316;DHT22;5203;48.976;8.306;2023-05-29T04:16:07;17.10;59.50
10316;DHT22;5203;48.976;8.306;2023-05-29T04:18:33;17.10;59.40
10316;DHT22;5203;48.976;8.306;2023-05-29T04:20:59;16.90;60.60
10316;DHT22;5203;48.976;8.306;2023-05-29T04:23:24;16.70;61.50
10316;DHT22;5203;48.976;8.306;2023-05-29T04:25:50;16.60;62.30
10316;DHT22;5203;48.976;8.306;2023-05-29T04:28:16;16.60;62.50
10316;DHT22;5203;48.976;8.306;2023-05-29T04:30:42;16.70;61.90
10316;DHT22;5203;48.976;8.306;2023-05-29T04:33:08;16.80;61.90
10316;DHT22;5203;48.976;8.306;2023-05-29T04:35:38;16.80;61.50
10316;DHT22;5203;48.976;8.306;2023-05-29T04:38:03;16.90;61.90
10316;DHT22;5203;48.976;8.306;2023-05-29T04:40:30;16.90;62.40
10316;DHT22;5203;48.976;8.306;2023-05-29T04:42:57;17.00;61.70
10316;DHT22;5203;48.976;8.306;2023-05-29T04:45:26;17.00;61.50
10316;DHT22;5203;48.976;8.306;2023-05-29T04:47:51;17.00;61.60
10316;DHT22;5203;48.976;8.306;2023-05-29T04:50:18;17.00;61.20
10316;DHT22;5203;48.976;8.306;2023-05-29T04:52:45;17.10;61.50
10316;DHT22;5203;48.976;8.306;2023-05-29T04:55:11;17.00;61.30
10316;DHT22;5203;48.976;8.306;2023-05-29T04:57:37;17.00;62.70
10316;DHT22;5203;48.976;8.306;2023-05-29T05:00:03;16.90;62.60
10316;DHT22;5203;48.976;8.306;2023-05-29T05:02:49;16.90;63.20
10316;DHT22;5203;48.976;8.306;2023-05-29T05:05:16;16.80;63.40
10316;DHT22;5203;48.976;8.306;2023-05-29T05:07:41;16.80;64.40
10316;DHT22;5203;48.976;8.306;2023-05-29T05:10:07;16.90;64.10
10316;DHT22;5203;48.976;8.306;2023-05-29T05:12:34;16.90;65.10
10316;DHT22;5203;48.976;8.306;2023-05-29T05:14:59;17.00;63.70
10316;DHT22;5203;48.976;8.306;2023-05-29T05:17:25;17.00;63.70
10316;DHT22;5203;48.976;8.306;2023-05-29T05:19:51;17.00;62.80
10316;DHT22;5203;48.976;8.306;2023-05-29T05:22:18;17.10;63.10
10316;DHT22;5203;48.976;8.306;2023-05-29T05:24:44;17.20;61.90
10316;DHT22;5203;48.976;8.306;2023-05-29T05:27:10;17.20;61.90
10316;DHT22;5203;48.976;8.306;2023-05-29T05:29:36;17.20;60.70
10316;DHT22;5203;48.976;8.306;2023-05-29T05:32:01;17.20;60.90
10316;DHT22;5203;48.976;8.306;2023-05-29T05:34:27;17.20;59.80
10316;DHT22;5203;48.976;8.306;2023-05-29T05:36:53;17.00;59.90
10316;DHT22;5203;48.976;8.306;2023-05-29T05:39:19;16.90;61.30
10316;DHT22;5203;48.976;8.306;2023-05-29T05:41:44;16.90;60.70
10316;DHT22;5203;48.976;8.306;2023-05-29T05:44:10;16.90;61.00
10316;DHT22;5203;48.976;8.306;2023-05-29T05:46:36;17.00;60.30
10316;DHT22;5203;48.976;8.306;2023-05-29T05:49:01;16.90;60.30
10316;DHT22;5203;48.976;8.306;2023-05-29T05:51:27;16.90;60.30
10316;DHT22;5203;48.976;8.306;2023-05-29T05:53:53;16.90;59.70
10316;DHT22;5203;48.976;8.306;2023-05-29T05:56:19;17.00;59.60
10316;DHT22;5203;48.976;8.306;2023-05-29T05:58:44;17.00;59.50
10316;DHT22;5203;48.976;8.306;2023-05-29T06:01:10;17.10;59.80
10316;DHT22;5203;48.976;8.306;2023-05-29T06:03:36;17.20;59.80
10316;DHT22;5203;48.976;8.306;2023-05-29T06:06:03;17.20;59.10
10316;DHT22;5203;48.976;8.306;2023-05-29T06:08:29;17.40;59.40
10316;DHT22;5203;48.976;8.306;2023-05-29T06:10:56;17.50;58.30
10316;DHT22;5203;48.976;8.306;2023-05-29T06:13:22;17.60;58.50
10316;DHT22;5203;48.976;8.306;2023-05-29T06:15:47;17.80;58.20
10316;DHT22;5203;48.976;8.306;2023-05-29T06:18:13;17.80;57.10
10316;DHT22;5203;48.976;8.306;2023-05-29T06:20:38;17.90;56.90
10316;DHT22;5203;48.976;8.306;2023-05-29T06:23:04;18.00;55.80
10316;DHT22;5203;48.976;8.306;2023-05-29T06:25:30;18.10;54.40
10316;DHT22;5203;48.976;8.306;2023-05-29T06:28:02;18.10;53.70
10316;DHT22;5203;48.976;8.306;2023-05-29T06:30:28;18.10;53.80
10316;DHT22;5203;48.976;8.306;2023-05-29T06:32:54;18.20;53.10
10316;DHT22;5203;48.976;8.306;2023-05-29T06:35:20;18.30;53.30
10316;DHT22;5203;48.976;8.306;2023-05-29T06:37:46;18.40;52.80
10316;DHT22;5203;48.976;8.306;2023-05-29T06:40:13;18.40;52.70
10316;DHT22;5203;48.976;8.306;2023-05-29T06:42:38;18.40;52.80
10316;DHT22;5203;48.976;8.306;2023-05-29T06:45:04;18.50;52.60
10316;DHT22;5203;48.976;8.306;2023-05-29T06:47:30;18.50;52.70
10316;DHT22;5203;48.976;8.306;2023-05-29T06:49:56;18.70;52.80
10316;DHT22;5203;48.976;8.306;2023-05-29T06:52:22;18.70;51.30
10316;DHT22;5203;48.976;8.306;2023-05-29T06:54:48;18.70;51.50
10316;DHT22;5203;48.976;8.306;2023-05-29T06:57:13;18.80;51.00
10316;DHT22;5203;48.976;8.306;2023-05-29T06:59:39;19.00;50.70
10316;DHT22;5203;48.976;8.306;2023-05-29T07:02:05;19.10;49.30
10316;DHT22;5203;48.976;8.306;2023-05-29T07:04:31;19.20;48.10
10316;DHT22;5203;48.976;8.306;2023-05-29T07:06:56;19.30;46.90
10316;DHT22;5203;48.976;8.306;2023-05-29T07:09:25;19.40;45.70
10316;DHT22;5203;48.976;8.306;2023-05-29T07:11:52;19.60;45.90
10316;DHT22;5203;48.976;8.306;2023-05-29T07:14:18;19.60;46.00
10316;DHT22;5203;48.976;8.306;2023-05-29T07:16:44;19.80;45.70
10316;DHT22;5203;48.976;8.306;2023-05-29T07:19:09;19.90;45.40
10316;DHT22;5203;48.976;8.306;2023-05-29T07:21:36;19.90;45.00
10316;DHT22;5203;48.976;8.306;2023-05-29T07:24:02;19.90;45.40
10316;DHT22;5203;48.976;8.306;2023-05-29T07:26:28;20.00;45.30
10316;DHT22;5203;48.976;8.306;2023-05-29T07:28:53;20.00;45.40
10316;DHT22;5203;48.976;8.306;2023-05-29T07:31:19;20.10;45.00
10316;DHT22;5203;48.976;8.306;2023-05-29T07:33:44;20.20;44.80
10316;DHT22;5203;48.976;8.306;2023-05-29T07:36:10;20.20;45.80
10316;DHT22;5203;48.976;8.306;2023-05-29T07:38:37;20.00;45.80
10316;DHT22;5203;48.976;8.306;2023-05-29T07:41:03;20.00;45.80
10316;DHT22;5203;48.976;8.306;2023-05-29T07:43:28;20.20;45.90
10316;DHT22;5203;48.976;8.306;2023-05-29T07:45:54;20.20;45.90
10316;DHT22;5203;48.976;8.306;2023-05-29T07:48:19;20.00;45.90
10316;DHT22;5203;48.976;8.306;2023-05-29T07:50:45;20.00;46.20
10316;DHT22;5203;48.976;8.306;2023-05-29T07:53:12;20.00;46.70
10316;DHT22;5203;48.976;8.306;2023-05-29T07:55:37;20.10;46.70
10316;DHT22;5203;48.976;8.306;2023-05-29T07:58:03;20.20;47.10
10316;DHT22;5203;48.976;8.306;2023-05-29T08:00:28;20.30;46.60
10316;DHT22;5203;48.976;8.306;2023-05-29T08:02:54;20.30;46.60
10316;DHT22;5203;48.976;8.306;2023-05-29T08:05:20;20.50;46.00
10316;DHT22;5203;48.976;8.306;2023-05-29T08:07:46;20.80;46.10
10316;DHT22;5203;48.976;8.306;2023-05-29T08:10:13;20.90;44.90
10316;DHT22;5203;48.976;8.306;2023-05-29T08:12:39;20.80;45.30
10316;DHT22;5203;48.976;8.306;2023-05-29T08:15:05;20.70;45.80
10316;DHT22;5203;48.976;8.306;2023-05-29T08:17:31;20.80;46.10
10316;DHT22;5203;48.976;8.306;2023-05-29T08:19:57;21.10;45.40
10316;DHT22;5203;48.976;8.306;2023-05-29T08:22:28;21.30;45.70
10316;DHT22;5203;48.976;8.306;2023-05-29T08:24:54;21.40;45.20
10316;DHT22;5203;48.976;8.306;2023-05-29T08:27:19;21.30;44.30
10316;DHT22;5203;48.976;8.306;2023-05-29T08:29:45;21.30;44.00
10316;DHT22;5203;48.976;8.306;2023-05-29T08:32:11;21.20;43.90
10316;DHT22;5203;48.976;8.306;2023-05-29T08:34:36;21.30;43.90
10316;DHT22;5203;48.976;8.306;2023-05-29T08:37:02;21.40;44.50
10316;DHT22;5203;48.976;8.306;2023-05-29T08:39:28;21.30;44.40
10316;DHT22;5203;48.976;8.306;2023-05-29T08:42:29;21.50;44.40
10316;DHT22;5203;48.976;8.306;2023-05-29T08:45:02;21.90;43.70
10316;DHT22;5203;48.976;8.306;2023-05-29T08:47:34;22.00;43.60
10316;DHT22;5203;48.976;8.306;2023-05-29T08:50:01;22.40;42.40
10316;DHT22;5203;48.976;8.306;2023-05-29T08:52:30;22.40;42.60
10316;DHT22;5203;48.976;8.306;2023-05-29T08:55:00;22.50;42.80
10316;DHT22;5203;48.976;8.306;2023-05-29T08:57:28;22.80;42.90
10316;DHT22;5203;48.976;8.306;2023-05-29T08:59:55;22.90;42.30
10316;DHT22;5203;48.976;8.306;2023-05-29T09:02:21;22.90;41.20
10316;DHT22;5203;48.976;8.306;2023-05-29T09:04:47;23.00;40.60
10316;DHT22;5203;48.976;8.306;2023-05-29T09:07:15;23.00;40.80
10316;DHT22;5203;48.976;8.306;2023-05-29T09:09:41;23.20;41.20
10316;DHT22;5203;48.976;8.306;2023-05-29T09:12:08;23.40;40.40
10316;DHT22;5203;48.976;8.306;2023-05-29T09:14:39;23.70;39.20
10316;DHT22;5203;48.976;8.306;2023-05-29T09:17:07;23.80;37.60
10316;DHT22;5203;48.976;8.306;2023-05-29T09:19:34;23.80;37.70
10316;DHT22;5203;48.976;8.306;2023-05-29T09:22:03;24.00;37.90
10316;DHT22;5203;48.976;8.306;2023-05-29T09:24:30;23.80;37.50
10316;DHT22;5203;48.976;8.306;2023-05-29T09:26:56;23.70;38.30
10316;DHT22;5203;48.976;8.306;2023-05-29T09:29:24;24.00;37.80
10316;DHT22;5203;48.976;8.306;2023-05-29T09:31:50;24.20;37.60
10316;DHT22;5203;48.976;8.306;2023-05-29T09:34:16;24.40;36.60
10316;DHT22;5203;48.976;8.306;2023-05-29T09:36:42;24.60;36.30
10316;DHT22;5203;48.976;8.306;2023-05-29T09:39:07;24.70;36.80
10316;DHT22;5203;48.976;8.306;2023-05-29T09:41:43;24.70;36.60
10316;DHT22;5203;48.976;8.306;2023-05-29T09:44:12;24.50;36.20
10316;DHT22;5203;48.976;8.306;2023-05-29T09:46:39;24.70;36.20
10316;DHT22;5203;48.976;8.306;2023-05-29T09:49:15;25.10;35.60
10316;DHT22;5203;48.976;8.306;2023-05-29T09:51:42;25.40;34.10
10316;DHT22;5203;48.976;8.306;2023-05-29T09:54:16;25.60;34.60
10316;DHT22;5203;48.976;8.306;2023-05-29T09:56:43;25.80;33.40
10316;DHT22;5203;48.976;8.306;2023-05-29T09:59:14;25.80;33.00
10316;DHT22;5203;48.976;8.306;2023-05-29T10:01:43;25.80;34.10
10316;DHT22;5203;48.976;8.306;2023-05-29T10:04:10;25.80;33.10
10316;DHT22;5203;48.976;8.306;2023-05-29T10:06:37;25.50;34.00
10316;DHT22;5203;48.976;8.306;2023-05-29T10:09:06;25.80;33.30
10316;DHT22;5203;48.976;8.306;2023-05-29T10:11:34;25.90;32.80
10316;DHT22;5203;48.976;8.306;2023-05-29T10:14:00;26.20;32.90
10316;DHT22;5203;48.976;8.306;2023-05-29T10:16:28;26.30;33.20
10316;DHT22;5203;48.976;8.306;2023-05-29T10:18:55;26.50;32.30
10316;DHT22;5203;48.976;8.306;2023-05-29T10:21:21;26.70;31.80
10316;DHT22;5203;48.976;8.306;2023-05-29T10:23:49;26.60;32.40
10316;DHT22;5203;48.976;8.306;2023-05-29T10:26:19;26.90;31.70
10316;DHT22;5203;48.976;8.306;2023-05-29T10:37:01;27.30;29.80
10316;DHT22;5203;48.976;8.306;2023-05-29T10:39:29;27.40;29.50
10316;DHT22;5203;48.976;8.306;2023-05-29T10:41:55;27.60;29.40
10316;DHT22;5203;48.976;8.306;2023-05-29T10:49:24;28.30;29.50
10316;DHT22;5203;48.976;8.306;2023-05-29T10:51:51;28.40;28.90
10316;DHT22;5203;48.976;8.306;2023-05-29T10:54:25;28.40;28.10
10316;DHT22;5203;48.976;8.306;2023-05-29T10:57:01;28.40;29.00
10316;DHT22;5203;48.976;8.306;2023-05-29T10:59:36;28.50;27.90
10316;DHT22;5203;48.976;8.306;2023-05-29T11:02:08;28.30;28.70
10316;DHT22;5203;48.976;8.306;2023-05-29T11:04:34;28.40;28.80
10316;DHT22;5203;48.976;8.306;2023-05-29T11:07:05;28.70;28.30
10316;DHT22;5203;48.976;8.306;2023-05-29T11:09:35;28.90;28.10
10316;DHT22;5203;48.976;8.306;2023-05-29T11:12:11;29.00;28.10
10316;DHT22;5203;48.976;8.306;2023-05-29T11:14:46;29.00;28.20
10316;DHT22;5203;48.976;8.306;2023-05-29T11:17:32;29.10;28.10
10316;DHT22;5203;48.976;8.306;2023-05-29T11:20:01;29.10;28.20
10316;DHT22;5203;48.976;8.306;2023-05-29T11:22:50;29.50;27.40
10316;DHT22;5203;48.976;8.306;2023-05-29T11:25:20;29.40;27.10
10316;DHT22;5203;48.976;8.306;2023-05-29T11:27:46;29.40;27.10
10316;DHT22;5203;48.976;8.306;2023-05-29T11:30:12;29.30;27.20
10316;DHT22;5203;48.976;8.306;2023-05-29T11:32:39;29.20;27.10
10316;DHT22;5203;48.976;8.306;2023-05-29T11:35:09;29.30;27.20
10316;DHT22;5203;48.976;8.306;2023-05-29T11:37:38;29.60;27.30
10316;DHT22;5203;48.976;8.306;2023-05-29T11:40:05;30.20;26.60
10316;DHT22;5203;48.976;8.306;2023-05-29T11:42:44;30.30;26.40
10316;DHT22;5203;48.976;8.306;2023-05-29T11:45:14;30.30;26.50
10316;DHT22;5203;48.976;8.306;2023-05-29T11:50:19;30.20;25.80
10316;DHT22;5203;48.976;8.306;2023-05-29T11:52:46;29.80;25.40
10316;DHT22;5203;48.976;8.306;2023-05-29T11:55:12;30.00;25.70
10316;DHT22;5203;48.976;8.306;2023-05-29T11:57:37;30.30;25.40
10316;DHT22;5203;48.976;8.306;2023-05-29T12:00:04;30.40;25.40
10316;DHT22;5203;48.976;8.306;2023-05-29T12:02:36;30.40;25.90
10316;DHT22;5203;48.976;8.306;2023-05-29T12:05:06;30.40;25.80
10316;DHT22;5203;48.976;8.306;2023-05-29T12:07:36;30.30;25.60
10316;DHT22;5203;48.976;8.306;2023-05-29T12:10:15;30.70;25.50
10316;DHT22;5203;48.976;8.306;2023-05-29T12:12:41;31.10;25.10
10316;DHT22;5203;48.976;8.306;2023-05-29T12:15:09;30.90;25.50
10316;DHT22;5203;48.976;8.306;2023-05-29T12:17:35;31.00;25.00
10316;DHT22;5203;48.976;8.306;2023-05-29T12:20:03;31.20;24.80
10316;DHT22;5203;48.976;8.306;2023-05-29T12:22:33;31.20;24.40
10316;DHT22;5203;48.976;8.306;2023-05-29T12:25:05;31.10;24.70
10316;DHT22;5203;48.976;8.306;2023-05-29T12:27:32;31.00;25.00
10316;DHT22;5203;48.976;8.306;2023-05-29T12:30:04;30.60;24.80
10316;DHT22;5203;48.976;8.306;2023-05-29T12:32:38;30.60;25.00
10316;DHT22;5203;48.976;8.306;2023-05-29T12:37:36;31.50;24.10
10316;DHT22;5203;48.976;8.306;2023-05-29T12:40:17;31.30;25.10
10316;DHT22;5203;48.976;8.306;2023-05-29T12:42:44;31.20;24.90
10316;DHT22;5203;48.976;8.306;2023-05-29T12:45:10;31.30;24.30
10316;DHT22;5203;48.976;8.306;2023-05-29T12:47:36;31.90;23.60
10316;DHT22;5203;48.976;8.306;2023-05-29T12:50:40;32.00;24.00
10316;DHT22;5203;48.976;8.306;2023-05-29T12:53:08;32.30;22.80
10316;DHT22;5203;48.976;8.306;2023-05-29T12:55:35;32.10;22.50
10316;DHT22;5203;48.976;8.306;2023-05-29T12:58:14;32.10;23.30
10316;DHT22;5203;48.976;8.306;2023-05-29T13:00:44;32.10;23.10
10316;DHT22;5203;48.976;8.306;2023-05-29T13:03:11;32.10;22.60
10316;DHT22;5203;48.976;8.306;2023-05-29T13:05:37;32.00;23.10
10316;DHT22;5203;48.976;8.306;2023-05-29T13:08:02;32.50;22.10
10316;DHT22;5203;48.976;8.306;2023-05-29T13:10:30;32.50;22.30
10316;DHT22;5203;48.976;8.306;2023-05-29T13:12:56;31.80;22.00
10316;DHT22;5203;48.976;8.306;2023-05-29T13:15:25;31.90;21.90
10316;DHT22;5203;48.976;8.306;2023-05-29T13:17:52;32.10;22.00
10316;DHT22;5203;48.976;8.306;2023-05-29T13:20:19;32.50;21.10
10316;DHT22;5203;48.976;8.306;2023-05-29T13:22:46;32.70;21.50
10316;DHT22;5203;48.976;8.306;2023-05-29T13:25:14;32.50;22.10
10316;DHT22;5203;48.976;8.306;2023-05-29T13:27:42;32.20;21.50
10316;DHT22;5203;48.976;8.306;2023-05-29T13:30:08;32.30;21.80
10316;DHT22;5203;48.976;8.306;2023-05-29T13:32:34;32.50;21.70
10316;DHT22;5203;48.976;8.306;2023-05-29T13:35:01;33.00;22.10
10316;DHT22;5203;48.976;8.306;2023-05-29T13:37:27;33.30;20.90
10316;DHT22;5203;48.976;8.306;2023-05-29T13:39:53;32.80;20.90
10316;DHT22;5203;48.976;8.306;2023-05-29T13:42:20;32.70;20.90
10316;DHT22;5203;48.976;8.306;2023-05-29T13:44:46;32.30;21.10
10316;DHT22;5203;48.976;8.306;2023-05-29T13:47:12;32.70;21.00
10316;DHT22;5203;48.976;8.306;2023-05-29T13:49:38;32.80;20.80
10316;DHT22;5203;48.976;8.306;2023-05-29T13:52:04;33.30;20.80
10316;DHT22;5203;48.976;8.306;2023-05-29T13:54:30;33.40;20.70
10316;DHT22;5203;48.976;8.306;2023-05-29T13:56:57;33.00;20.50
10316;DHT22;5203;48.976;8.306;2023-05-29T13:59:24;32.60;20.80
10316;DHT22;5203;48.976;8.306;2023-05-29T14:01:50;32.80;20.40
10316;DHT22;5203;48.976;8.306;2023-05-29T14:04:15;32.90;21.30
10316;DHT22;5203;48.976;8.306;2023-05-29T14:06:41;32.70;21.50
10316;DHT22;5203;48.976;8.306;2023-05-29T14:09:07;32.80;21.20
10316;DHT22;5203;48.976;8.306;2023-05-29T14:11:36;33.50;20.90
10316;DHT22;5203;48.976;8.306;2023-05-29T14:14:03;33.10;20.20
10316;DHT22;5203;48.976;8.306;2023-05-29T14:16:29;32.70;20.30
10316;DHT22;5203;48.976;8.306;2023-05-29T14:18:55;32.80;20.80
10316;DHT22;5203;48.976;8.306;2023-05-29T14:21:20;33.10;20.20
10316;DHT22;5203;48.976;8.306;2023-05-29T14:23:46;33.20;20.60
10316;DHT22;5203;48.976;8.306;2023-05-29T14:26:12;33.00;20.10
10316;DHT22;5203;48.976;8.306;2023-05-29T14:28:38;33.30;20.30
10316;DHT22;5203;48.976;8.306;2023-05-29T14:31:04;33.30;20.20
10316;DHT22;5203;48.976;8.306;2023-05-29T14:33:30;33.80;20.30
10316;DHT22;5203;48.976;8.306;2023-05-29T14:35:58;33.60;20.50
10316;DHT22;5203;48.976;8.306;2023-05-29T14:38:24;33.80;20.90
10316;DHT22;5203;48.976;8.306;2023-05-29T14:40:50;33.30;20.60
10316;DHT22;5203;48.976;8.306;2023-05-29T14:43:15;33.30;20.70
10316;DHT22;5203;48.976;8.306;2023-05-29T14:45:41;33.50;20.10
10316;DHT22;5203;48.976;8.306;2023-05-29T14:48:06;33.30;20.70
10316;DHT22;5203;48.976;8.306;2023-05-29T14:50:32;33.20;21.10
10316;DHT22;5203;48.976;8.306;2023-05-29T14:52:58;33.70;20.90
10316;DHT22;5203;48.976;8.306;2023-05-29T14:55:23;33.20;21.30
10316;DHT22;5203;48.976;8.306;2023-05-29T14:57:49;33.20;21.40
10316;DHT22;5203;48.976;8.306;2023-05-29T15:00:15;33.40;21.30
10316;DHT22;5203;48.976;8.306;2023-05-29T15:02:41;33.80;20.90
10316;DHT22;5203;48.976;8.306;2023-05-29T15:05:07;34.10;20.10
10316;DHT22;5203;48.976;8.306;2023-05-29T15:07:33;34.30;19.80
10316;DHT22;5203;48.976;8.306;2023-05-29T15:10:15;34.40;19.90
10316;DHT22;5203;48.976;8.306;2023-05-29T15:12:42;34.40;20.10
10316;DHT22;5203;48.976;8.306;2023-05-29T15:15:08;34.70;19.90
10316;DHT22;5203;48.976;8.306;2023-05-29T15:17:34;34.80;19.40
10316;DHT22;5203;48.976;8.306;2023-05-29T15:20:00;34.50;19.70
10316;DHT22;5203;48.976;8.306;2023-05-29T15:22:26;34.40;19.70
10316;DHT22;5203;48.976;8.306;2023-05-29T15:24:51;34.10;20.10
10316;DHT22;5203;48.976;8.306;2023-05-29T15:27:17;33.80;19.80
10316;DHT22;5203;48.976;8.306;2023-05-29T15:29:42;33.40;19.80
10316;DHT22;5203;48.976;8.306;2023-05-29T15:32:08;33.60;19.40
10316;DHT22;5203;48.976;8.306;2023-05-29T15:34:34;33.30;20.20
10316;DHT22;5203;48.976;8.306;2023-05-29T15:37:01;33.40;20.20
10316;DHT22;5203;48.976;8.306;2023-05-29T15:39:26;33.80;19.80
10316;DHT22;5203;48.976;8.306;2023-05-29T15:41:52;34.00;20.00
10316;DHT22;5203;48.976;8.306;2023-05-29T15:44:18;34.20;19.30
10316;DHT22;5203;48.976;8.306;2023-05-29T15:46:43;34.00;19.60
10316;DHT22;5203;48.976;8.306;2023-05-29T15:49:09;33.80;19.70
10316;DHT22;5203;48.976;8.306;2023-05-29T15:51:34;33.90;19.70
10316;DHT22;5203;48.976;8.306;2023-05-29T15:54:06;34.20;19.80
10316;DHT22;5203;48.976;8.306;2023-05-29T15:56:32;34.10;20.10
10316;DHT22;5203;48.976;8.306;2023-05-29T15:58:57;34.30;19.80
10316;DHT22;5203;48.976;8.306;2023-05-29T16:01:23;34.20;20.00
10316;DHT22;5203;48.976;8.306;2023-05-29T16:03:49;34.60;20.40
10316;DHT22;5203;48.976;8.306;2023-05-29T16:06:15;34.70;20.20
10316;DHT22;5203;48.976;8.306;2023-05-29T16:08:41;34.60;20.10